Time;durP1;ratioP1;P1;durP2;ratioP2;P2;SDS_P1;SDS_P2;PMS_P1;PMS_P2;Temp;Humidity;BMP_temperature;BMP_pressure;BME280_temperature;BME280_humidity;BME280_pressure;Samples;Min_cycle;Max_cycle;Signal;HPM_P1;HPM_P2
2022/02/14 00:00:29;;;;;;;1999.90;999.90;;;12.00;73.40;;;;;;4937294;28;20047;-90
2022/02/14 00:02:55;;;;;;;1505.70;755.42;;;11.90;73.50;;;;;;4954056;28;20043;-90
2022/02/14 00:05:21;;;;;;;22.42;21.42;;;11.80;73.60;;;;;;4942188;29;20039;-91
2022/02/14 00:07:47;;;;;;;1505.45;755.20;;;11.80;73.80;;;;;;4945784;29;20494;-90
2022/02/14 00:10:13;;;;;;;23.05;21.98;;;11.70;73.80;;;;;;4945381;29;20039;-90
2022/02/14 00:12:41;;;;;;;22.10;21.10;;;11.60;73.90;;;;;;4948435;29;20027;-90
2022/02/14 00:15:09;;;;;;;22.58;21.58;;;11.50;73.90;;;;;;4948374;28;20043;-90
2022/02/14 00:17:35;;;;;;;22.23;21.13;;;11.50;74.00;;;;;;4947719;29;20035;-90
2022/02/14 00:20:02;;;;;;;21.45;20.45;;;11.40;74.00;;;;;;4947039;29;20470;-90
2022/02/14 00:22:28;;;;;;;21.77;20.77;;;11.40;74.10;;;;;;4956316;28;20368;-91
2022/02/14 00:24:54;;;;;;;21.25;20.25;;;11.40;74.10;;;;;;4947517;28;20050;-91
2022/02/14 00:27:21;;;;;;;22.17;21.17;;;11.30;74.10;;;;;;4954561;29;20394;-91
2022/02/14 00:29:48;;;;;;;21.77;20.77;;;11.30;74.10;;;;;;4939725;29;20048;-90
2022/02/14 00:32:15;;;;;;;21.70;20.70;;;11.30;74.20;;;;;;4950773;28;20047;-92
2022/02/14 00:34:41;;;;;;;21.65;20.65;;;11.30;74.20;;;;;;4949045;29;20019;-90
2022/02/14 00:37:08;;;;;;;21.52;20.52;;;11.20;74.10;;;;;;4951367;29;20493;-90
2022/02/14 00:39:34;;;;;;;21.95;20.95;;;11.20;74.20;;;;;;4944502;29;20035;-91
2022/02/14 00:42:00;;;;;;;21.10;20.10;;;11.20;74.20;;;;;;4954292;29;20035;-91
2022/02/14 00:44:26;;;;;;;21.20;20.20;;;11.10;74.10;;;;;;4952717;29;20034;-90
2022/02/14 00:46:52;;;;;;;21.17;20.17;;;11.10;74.20;;;;;;4953875;28;20047;-91
2022/02/14 00:49:18;;;;;;;22.05;20.60;;;11.10;74.30;;;;;;4953656;29;20027;-90
2022/02/14 00:51:44;;;;;;;21.27;20.27;;;11.00;74.30;;;;;;4952134;29;20478;-91
2022/02/14 00:54:10;;;;;;;20.50;19.60;;;11.00;74.30;;;;;;4940444;29;20043;-91
2022/02/14 00:56:36;;;;;;;20.55;19.65;;;11.00;74.40;;;;;;4952004;29;20371;-91
2022/02/14 00:59:02;;;;;;;19.90;19.00;;;11.00;74.40;;;;;;4953128;29;20034;-91
2022/02/14 01:01:29;;;;;;;20.05;19.15;;;10.90;74.40;;;;;;4952390;28;20039;-91
2022/02/14 01:03:55;;;;;;;20.63;19.73;;;10.90;74.40;;;;;;4943376;29;20035;-91
2022/02/14 01:06:22;;;;;;;20.00;19.10;;;10.90;74.40;;;;;;4936793;29;20055;-90
2022/02/14 01:08:48;;;;;;;20.85;19.85;;;10.90;74.40;;;;;;4940786;28;20052;-90
2022/02/14 01:11:14;;;;;;;20.70;19.77;;;10.80;74.40;;;;;;4951489;28;20509;-90
2022/02/14 01:13:40;;;;;;;20.67;19.77;;;10.80;74.50;;;;;;4952249;28;20035;-91
2022/02/14 01:16:06;;;;;;;20.30;19.40;;;10.80;74.40;;;;;;4951987;28;20039;-91
2022/02/14 01:18:32;;;;;;;20.33;19.42;;;10.80;74.40;;;;;;4950653;29;20046;-90
2022/02/14 01:20:58;;;;;;;20.40;19.50;;;10.70;74.40;;;;;;4936356;29;20047;-90
2022/02/14 01:23:24;;;;;;;20.30;19.40;;;10.80;74.40;;;;;;4947937;29;20039;-90
2022/02/14 01:25:50;;;;;;;19.77;18.88;;;10.80;74.80;;;;;;4947475;29;20606;-90
2022/02/14 01:28:17;;;;;;;20.15;19.25;;;10.70;74.50;;;;;;4953091;29;20023;-90
2022/02/14 01:30:43;;;;;;;19.95;19.05;;;10.70;74.50;;;;;;4952669;28;20047;-90
2022/02/14 01:33:09;;;;;;;20.25;19.35;;;10.70;74.50;;;;;;4950058;29;20470;-90
2022/02/14 01:35:35;;;;;;;20.35;19.45;;;10.70;74.50;;;;;;4951242;28;20050;-90
2022/02/14 01:38:02;;;;;;;19.85;18.95;;;10.70;74.50;;;;;;4942904;29;20415;-92
2022/02/14 01:40:28;;;;;;;20.20;19.30;;;10.60;74.50;;;;;;4948703;28;20406;-90
2022/02/14 01:42:54;;;;;;;19.05;18.15;;;10.70;74.60;;;;;;4953392;29;20043;-89
2022/02/14 01:45:20;;;;;;;19.80;18.90;;;10.60;75.30;;;;;;4933539;28;20052;-90
2022/02/14 01:47:46;;;;;;;20.48;19.58;;;10.60;74.60;;;;;;4950309;29;20031;-90
2022/02/14 01:50:13;;;;;;;18.92;18.02;;;10.60;74.60;;;;;;4951364;29;20039;-90
2022/02/14 01:52:40;;;;;;;19.88;18.98;;;10.60;74.60;;;;;;4953153;29;20027;-88
2022/02/14 01:55:07;;;;;;;20.23;19.33;;;10.50;74.60;;;;;;4948273;28;20063;-90
2022/02/14 01:57:33;;;;;;;20.27;19.38;;;10.50;74.60;;;;;;4951290;29;20501;-91
2022/02/14 02:00:00;;;;;;;19.55;18.65;;;10.50;74.70;;;;;;4952177;28;20299;-90
2022/02/14 02:02:26;;;;;;;20.42;19.52;;;10.50;74.80;;;;;;4949985;28;20038;-90
2022/02/14 02:04:52;;;;;;;19.88;18.98;;;10.40;74.70;;;;;;4951434;29;20027;-90
2022/02/14 02:07:18;;;;;;;19.98;19.08;;;10.40;74.70;;;;;;4944530;29;20506;-90
2022/02/14 02:09:44;;;;;;;20.17;19.17;;;10.40;74.70;;;;;;4941633;29;20035;-90
2022/02/14 02:12:23;;;;;;;20.42;19.33;;;10.40;74.80;;;;;;4935858;29;20056;-90
2022/02/14 02:14:53;;;;;;;19.90;19.00;;;10.40;74.90;;;;;;4948499;28;20035;-90
2022/02/14 02:17:19;;;;;;;19.73;18.83;;;10.40;74.80;;;;;;4951232;28;20505;-88
2022/02/14 02:19:45;;;;;;;20.38;19.13;;;10.40;74.90;;;;;;4948122;28;20135;-90
2022/02/14 02:22:11;;;;;;;20.42;19.48;;;10.30;74.80;;;;;;4950934;29;20035;-90
2022/02/14 02:24:45;;;;;;;21.50;20.00;;;10.30;74.80;;;;;;4944423;28;20390;-90
2022/02/14 02:27:11;;;;;;;19.92;19.02;;;10.30;74.90;;;;;;4955470;29;20372;-90
2022/02/14 02:29:38;;;;;;;19.90;19.00;;;10.30;74.90;;;;;;4953687;29;20039;-91
2022/02/14 02:32:05;;;;;;;19.75;18.85;;;10.20;74.90;;;;;;4955891;28;20043;-91
2022/02/14 02:34:32;;;;;;;20.30;19.33;;;10.20;74.90;;;;;;4952877;28;20043;-90
2022/02/14 02:36:58;;;;;;;20.23;19.33;;;10.30;75.00;;;;;;4954341;28;20051;-90
2022/02/14 02:39:25;;;;;;;19.67;18.77;;;10.20;74.90;;;;;;4945160;29;20027;-91
2022/02/14 02:41:51;;;;;;;20.35;19.45;;;10.30;75.00;;;;;;4955415;29;20024;-90
2022/02/14 02:44:17;;;;;;;19.77;18.88;;;10.20;74.90;;;;;;4937362;29;20035;-90
2022/02/14 02:46:44;;;;;;;20.15;19.25;;;10.20;74.90;;;;;;4948782;28;20494;-90
2022/02/14 02:49:14;;;;;;;20.20;19.30;;;10.20;75.00;;;;;;4954624;29;20035;-91
2022/02/14 02:51:42;;;;;;;20.00;19.10;;;10.20;75.00;;;;;;4951331;28;20050;-90
2022/02/14 02:54:08;;;;;;;21.20;20.02;;;10.20;75.00;;;;;;4949392;29;20032;-90
2022/02/14 02:56:35;;;;;;;20.33;19.40;;;10.20;75.10;;;;;;4946105;29;20039;-90
2022/02/14 02:59:02;;;;;;;21.20;20.20;;;10.20;75.00;;;;;;4952475;28;20023;-91
2022/02/14 03:01:28;;;;;;;19.98;18.98;;;10.20;75.10;;;;;;4953666;28;20040;-90
2022/02/14 03:03:54;;;;;;;20.42;19.50;;;10.30;75.10;;;;;;4950050;28;20028;-90
2022/02/14 03:06:21;;;;;;;19.70;18.80;;;10.20;75.40;;;;;;4951663;28;20490;-90
2022/02/14 03:08:49;;;;;;;20.92;19.95;;;10.30;75.00;;;;;;4947671;28;20394;-91
2022/02/14 03:11:16;;;;;;;19.17;18.27;;;10.20;75.10;;;;;;4951484;29;20035;-91
2022/02/14 03:13:43;;;;;;;20.52;19.63;;;10.20;75.10;;;;;;4950813;29;20521;-90
2022/02/14 03:16:09;;;;;;;20.17;19.23;;;10.30;75.20;;;;;;4947266;28;20027;-90
2022/02/14 03:18:35;;;;;;;21.10;20.10;;;10.30;75.10;;;;;;4950187;29;20040;-90
2022/02/14 03:21:01;;;;;;;20.45;19.55;;;10.30;75.10;;;;;;4953829;29;20094;-91
2022/02/14 03:23:28;;;;;;;20.70;19.77;;;10.30;75.20;;;;;;4949533;29;20514;-90
2022/02/14 03:25:54;;;;;;;20.52;19.63;;;10.30;75.10;;;;;;4950036;29;20035;-90
2022/02/14 03:28:20;;;;;;;20.70;19.75;;;10.30;75.10;;;;;;4944114;28;20046;-91
2022/02/14 03:30:46;;;;;;;20.20;19.20;;;10.30;75.10;;;;;;4948559;28;20066;-90
2022/02/14 03:33:12;;;;;;;19.65;18.75;;;10.30;75.10;;;;;;4953698;29;20035;-91
2022/02/14 03:35:38;;;;;;;19.70;18.80;;;10.30;75.20;;;;;;4950229;28;20485;-90
2022/02/14 03:38:06;;;;;;;19.63;18.67;;;10.20;75.10;;;;;;4953103;28;20043;-91
2022/02/14 03:40:33;;;;;;;20.60;19.67;;;10.20;75.90;;;;;;4950832;28;20043;-91
2022/02/14 03:43:01;;;;;;;20.30;19.40;;;10.20;75.30;;;;;;4943749;28;20039;-90
2022/02/14 03:45:27;;;;;;;19.98;19.08;;;10.20;75.30;;;;;;4950026;28;20386;-90
2022/02/14 03:47:53;;;;;;;20.52;19.60;;;10.20;75.30;;;;;;4949067;29;20039;-91
2022/02/14 03:50:19;;;;;;;20.48;19.55;;;10.10;75.30;;;;;;4952246;29;20039;-90
2022/02/14 03:52:46;;;;;;;19.83;18.80;;;10.10;75.30;;;;;;4954309;28;20035;-89
2022/02/14 03:55:12;;;;;;;19.38;18.48;;;10.10;75.30;;;;;;4953230;29;20019;-90
2022/02/14 03:57:38;;;;;;;21.15;19.95;;;10.10;75.40;;;;;;4938930;29;20031;-90
2022/02/14 04:00:08;;;;;;;20.58;19.60;;;10.10;75.40;;;;;;4937932;28;20479;-91
2022/02/14 04:02:38;;;;;;;19.25;18.35;;;10.10;75.40;;;;;;4949410;29;20024;-89
2022/02/14 04:05:05;;;;;;;20.60;19.67;;;10.00;75.40;;;;;;4949299;29;20497;-90
2022/02/14 04:07:31;;;;;;;20.85;19.88;;;10.00;75.50;;;;;;4952436;29;20046;-90
2022/02/14 04:09:57;;;;;;;19.45;18.55;;;10.00;75.50;;;;;;4954486;28;20031;-89
2022/02/14 04:12:23;;;;;;;19.70;18.80;;;10.00;75.60;;;;;;4952797;29;20027;-90
2022/02/14 04:14:49;;;;;;;21.27;20.27;;;10.00;75.60;;;;;;4940125;29;20028;-90
2022/02/14 04:17:15;;;;;;;20.13;19.23;;;9.90;75.60;;;;;;4951014;28;20498;-90
2022/02/14 04:19:41;;;;;;;19.98;19.08;;;9.90;75.60;;;;;;4951238;29;20040;-91
2022/02/14 04:22:07;;;;;;;21.33;20.33;;;9.90;75.70;;;;;;4948576;29;20375;-90
2022/02/14 04:24:33;;;;;;;19.30;18.40;;;9.90;75.70;;;;;;4953477;29;20035;-90
2022/02/14 04:26:59;;;;;;;20.63;19.70;;;9.90;75.70;;;;;;4953849;29;20490;-90
2022/02/14 04:29:25;;;;;;;19.45;18.55;;;9.90;75.80;;;;;;4952659;29;20293;-90
2022/02/14 04:31:51;;;;;;;20.17;19.27;;;9.80;75.70;;;;;;4952088;28;20351;-90
2022/02/14 04:34:19;;;;;;;19.63;18.73;;;9.80;75.70;;;;;;4945530;28;20027;-90
2022/02/14 04:36:49;;;;;;;20.40;19.50;;;9.80;75.70;;;;;;4950800;29;20502;-90
2022/02/14 04:39:15;;;;;;;19.73;18.83;;;9.90;75.80;;;;;;4956100;28;20091;-90
2022/02/14 04:41:41;;;;;;;19.85;18.95;;;9.80;75.70;;;;;;4950305;29;20047;-90
2022/02/14 04:44:07;;;;;;;19.70;18.80;;;9.80;75.70;;;;;;4952849;29;20390;-90
2022/02/14 04:46:34;;;;;;;21.05;20.05;;;9.80;75.70;;;;;;4948020;28;20044;-90
2022/02/14 04:49:00;;;;;;;20.58;19.67;;;9.80;75.70;;;;;;4962985;28;20039;-90
2022/02/14 04:51:27;;;;;;;20.95;19.95;;;9.80;75.70;;;;;;4938042;28;20395;-90
2022/02/14 04:53:53;;;;;;;21.20;20.20;;;9.80;75.70;;;;;;4954106;28;20054;-90
2022/02/14 04:56:19;;;;;;;20.10;19.20;;;9.80;75.70;;;;;;4953277;29;20490;-90
2022/02/14 04:58:46;;;;;;;18.30;17.50;;;9.80;75.70;;;;;;4952503;29;20035;-91
2022/02/14 05:01:12;;;;;;;20.33;19.42;;;9.80;75.70;;;;;;4951837;28;20039;-90
2022/02/14 05:03:38;;;;;;;20.90;19.90;;;9.80;75.70;;;;;;4941464;29;20027;-91
2022/02/14 05:06:04;;;;;;;21.80;20.80;;;9.80;75.70;;;;;;4940372;29;20044;-90
2022/02/14 05:08:30;;;;;;;21.00;20.00;;;9.80;75.70;;;;;;4943998;29;20042;-90
2022/02/14 05:10:57;;;;;;;21.00;20.00;;;9.70;75.70;;;;;;4952077;28;20027;-91
2022/02/14 05:13:23;;;;;;;21.85;20.85;;;9.80;75.70;;;;;;4954188;28;20028;-90
2022/02/14 05:15:49;;;;;;;21.23;20.23;;;9.70;75.70;;;;;;4952872;28;20031;-91
2022/02/14 05:18:16;;;;;;;20.42;19.52;;;9.70;75.80;;;;;;4953276;28;20035;-90
2022/02/14 05:20:42;;;;;;;21.20;20.20;;;9.70;75.80;;;;;;4952717;29;20035;-89
2022/02/14 05:23:08;;;;;;;21.63;20.40;;;9.70;75.80;;;;;;4952136;29;20031;-85
2022/02/14 05:25:34;;;;;;;19.30;18.40;;;9.70;75.80;;;;;;4947127;29;20034;-84
2022/02/14 05:28:08;;;;;;;21.85;20.85;;;9.70;75.90;;;;;;4950966;28;20060;-84
2022/02/14 05:30:34;;;;;;;20.73;19.77;;;9.60;75.80;;;;;;4941574;28;20040;-83
2022/02/14 05:33:00;;;;;;;21.63;20.63;;;9.60;75.80;;;;;;4941392;29;20238;-82
2022/02/14 05:35:27;;;;;;;20.55;19.65;;;9.60;75.90;;;;;;4949442;28;20390;-81
2022/02/14 05:37:53;;;;;;;21.42;20.42;;;9.60;75.90;;;;;;4941814;29;20455;-82
2022/02/14 05:40:19;;;;;;;20.55;19.65;;;9.60;76.00;;;;;;4947908;29;20046;-81
2022/02/14 05:42:46;;;;;;;20.55;19.65;;;9.50;75.90;;;;;;4949993;28;20046;-83
2022/02/14 05:45:12;;;;;;;20.48;19.55;;;9.50;75.90;;;;;;4951714;28;20027;-83
2022/02/14 05:47:38;;;;;;;20.58;19.67;;;9.50;76.00;;;;;;4952871;29;20050;-84
2022/02/14 05:50:05;;;;;;;20.90;19.90;;;9.50;76.00;;;;;;4953013;29;20035;-83
2022/02/14 05:52:31;;;;;;;21.23;20.23;;;9.50;76.10;;;;;;4952615;28;20046;-83
2022/02/14 05:54:57;;;;;;;20.02;19.13;;;9.50;76.10;;;;;;4956329;28;20509;-82
2022/02/14 05:57:23;;;;;;;20.40;19.50;;;9.40;76.10;;;;;;4952657;28;20031;-85
2022/02/14 05:59:49;;;;;;;20.17;19.27;;;9.40;76.10;;;;;;4961252;28;20040;-84
2022/02/14 06:02:16;;;;;;;21.20;20.20;;;9.40;76.10;;;;;;4959290;28;20043;-85
2022/02/14 06:04:42;;;;;;;20.17;19.27;;;9.40;76.20;;;;;;4951102;28;20028;-84
2022/02/14 06:07:08;;;;;;;20.85;19.85;;;9.30;76.20;;;;;;4944829;28;20379;-83
2022/02/14 06:09:34;;;;;;;20.48;19.58;;;9.30;76.20;;;;;;4950930;28;20030;-82
2022/02/14 06:12:00;;;;;;;20.98;19.98;;;9.30;76.30;;;;;;4939296;29;20040;-83
2022/02/14 06:14:27;;;;;;;19.95;18.95;;;9.30;76.30;;;;;;4953218;28;20031;-82
2022/02/14 06:16:53;;;;;;;20.58;19.65;;;9.30;76.40;;;;;;4957842;28;20039;-85
2022/02/14 06:19:21;;;;;;;20.33;19.42;;;9.30;76.30;;;;;;4961804;28;20186;-84
2022/02/14 06:21:47;;;;;;;20.88;19.88;;;9.30;76.30;;;;;;4954294;29;20406;-84
2022/02/14 06:24:14;;;;;;;19.75;18.77;;;9.30;76.30;;;;;;4953526;29;20040;-89
2022/02/14 06:26:40;;;;;;;19.52;18.63;;;9.30;76.30;;;;;;4953794;28;20039;-88
2022/02/14 06:29:06;;;;;;;20.63;19.70;;;9.30;76.30;;;;;;4955117;29;20059;-89
2022/02/14 06:31:32;;;;;;;20.52;19.63;;;9.30;76.20;;;;;;4951657;28;20422;-91
2022/02/14 06:33:59;;;;;;;19.27;18.38;;;9.30;76.20;;;;;;4950665;28;20038;-90
2022/02/14 06:36:26;;;;;;;19.80;18.90;;;9.30;76.20;;;;;;4941589;28;20047;-88
2022/02/14 06:38:53;;;;;;;19.48;18.58;;;9.30;76.30;;;;;;4953997;29;20043;-89
2022/02/14 06:41:20;;;;;;;19.85;18.95;;;9.30;76.20;;;;;;4953753;29;20034;-88
2022/02/14 06:43:46;;;;;;;20.00;19.10;;;9.20;76.20;;;;;;4956055;29;20410;-89
2022/02/14 06:46:13;;;;;;;20.63;19.67;;;9.20;76.20;;;;;;4954848;28;20027;-89
2022/02/14 06:48:39;;;;;;;20.17;19.27;;;9.20;76.20;;;;;;4940291;28;20510;-89
2022/02/14 06:51:05;;;;;;;19.70;18.80;;;9.20;76.20;;;;;;4955927;29;20035;-88
2022/02/14 06:53:31;;;;;;;20.33;19.05;;;9.20;76.30;;;;;;4955774;29;20039;-88
2022/02/14 06:56:00;;;;;;;20.00;19.10;;;9.20;76.30;;;;;;4955848;29;20038;-87
2022/02/14 06:58:26;;;;;;;19.20;18.30;;;9.20;76.30;;;;;;4949719;28;20054;-89
2022/02/14 07:00:53;;;;;;;21.25;20.15;;;9.20;76.40;;;;;;4953873;28;20518;-88
2022/02/14 07:03:19;;;;;;;19.70;18.80;;;9.10;76.40;;;;;;4953555;29;20041;-88
2022/02/14 07:05:45;;;;;;;19.60;18.70;;;9.10;76.40;;;;;;4955314;29;20031;-87
2022/02/14 07:08:11;;;;;;;19.38;18.48;;;9.10;76.40;;;;;;4955389;29;20406;-88
2022/02/14 07:10:37;;;;;;;18.73;17.83;;;9.10;76.40;;;;;;4955320;28;20027;-88
2022/02/14 07:13:03;;;;;;;19.45;18.55;;;9.10;76.40;;;;;;4955357;29;20054;-89
2022/02/14 07:15:29;;;;;;;20.67;19.15;;;9.10;76.60;;;;;;4954253;28;20852;-92
2022/02/14 07:17:55;;;;;;;19.63;18.73;;;9.00;76.50;;;;;;4948109;29;20486;-93
2022/02/14 07:20:22;;;;;;;18.92;18.02;;;9.00;76.50;;;;;;4957574;28;20042;-94
2022/02/14 07:22:48;;;;;;;19.80;18.90;;;9.00;76.60;;;;;;4951700;28;20478;-87
2022/02/14 07:25:15;;;;;;;19.25;18.35;;;9.00;76.60;;;;;;4965226;28;20042;-92
2022/02/14 07:27:41;;;;;;;19.63;18.73;;;9.00;76.60;;;;;;4954461;28;20050;-93
2022/02/14 07:30:09;;;;;;;20.17;19.27;;;9.00;77.40;;;;;;4958404;28;20043;-93
2022/02/14 07:32:35;;;;;;;19.90;19.00;;;8.90;76.60;;;;;;4949984;28;20057;-93
2022/02/14 07:35:02;;;;;;;19.70;18.80;;;8.90;76.60;;;;;;4949609;28;20039;-94
2022/02/14 07:37:28;;;;;;;19.88;18.98;;;8.90;76.60;;;;;;4949439;28;20024;-93
2022/02/14 07:39:54;;;;;;;20.05;19.15;;;8.90;76.70;;;;;;4953560;28;20059;-93
2022/02/14 07:42:20;;;;;;;20.52;19.17;;;8.90;76.70;;;;;;4955163;29;20035;-91
2022/02/14 07:44:46;;;;;;;20.23;19.27;;;8.90;76.60;;;;;;4965577;29;20031;-93
2022/02/14 07:47:12;;;;;;;19.27;18.38;;;8.90;76.70;;;;;;4952062;28;20520;-93
2022/02/14 07:49:39;;;;;;;19.58;18.67;;;8.90;76.60;;;;;;4957946;28;20043;-92
2022/02/14 07:52:05;;;;;;;19.35;18.45;;;8.90;76.60;;;;;;4960679;28;20042;-92
2022/02/14 07:54:31;;;;;;;20.08;19.17;;;9.00;76.60;;;;;;4963967;28;20035;-92
2022/02/14 07:56:57;;;;;;;19.40;18.50;;;9.00;76.50;;;;;;4965430;29;20038;-92
2022/02/14 07:59:23;;;;;;;19.10;18.20;;;9.00;76.50;;;;;;4962371;28;20038;-92
2022/02/14 08:01:49;;;;;;;19.50;18.60;;;9.00;76.40;;;;;;4958544;28;20035;-93
2022/02/14 08:04:15;;;;;;;18.55;17.70;;;9.10;76.50;;;;;;4960357;28;20386;-91
2022/02/14 08:06:41;;;;;;;19.27;18.38;;;9.10;76.30;;;;;;4954721;28;20046;-86
2022/02/14 08:09:07;;;;;;;19.63;18.73;;;9.20;76.30;;;;;;4955272;29;20027;-86
2022/02/14 08:11:34;;;;;;;19.48;18.58;;;9.20;76.20;;;;;;4944869;29;20040;-90
2022/02/14 08:14:00;;;;;;;19.40;18.50;;;9.40;76.00;;;;;;4951342;28;20401;-88
2022/02/14 08:16:26;;;;;;;18.48;17.65;;;9.80;75.30;;;;;;4956886;28;20035;-91
2022/02/14 08:18:52;;;;;;;20.45;19.35;;;10.20;74.20;;;;;;4966416;28;20042;-90
2022/02/14 08:21:18;;;;;;;19.75;18.85;;;10.70;73.30;;;;;;4953954;28;20037;-92
2022/02/14 08:23:45;;;;;;;21.17;20.17;;;11.00;72.30;;;;;;4942528;29;20043;-92
2022/02/14 08:26:11;;;;;;;21.40;20.40;;;11.40;71.50;;;;;;4953380;28;20044;-94
2022/02/14 08:28:38;;;;;;;1999.90;999.90;;;11.50;71.10;;;;;;4960572;29;20501;-94
2022/02/14 08:31:05;;;;;;;1999.90;999.90;;;11.50;71.30;;;;;;4956381;28;20039;-92
2022/02/14 08:33:31;;;;;;;1999.90;999.90;;;11.50;71.40;;;;;;4958923;29;20042;-93
2022/02/14 08:35:57;;;;;;;1999.90;999.90;;;11.60;71.50;;;;;;4956757;29;20070;-92
2022/02/14 08:38:23;;;;;;;1999.90;999.90;;;11.80;71.30;;;;;;4949091;28;20039;-88
2022/02/14 08:40:49;;;;;;;1999.90;999.90;;;12.10;70.80;;;;;;4953446;29;20031;-92
2022/02/14 08:43:16;;;;;;;1999.90;999.90;;;12.40;70.30;;;;;;4955496;28;20043;-87
2022/02/14 08:45:42;;;;;;;1999.90;999.90;;;12.40;69.90;;;;;;4940013;28;20035;-88
2022/02/14 08:48:08;;;;;;;1999.90;999.90;;;12.30;70.10;;;;;;4937357;29;20060;-88
2022/02/14 08:50:34;;;;;;;1999.90;999.90;;;12.00;70.70;;;;;;4938708;29;20027;-88
2022/02/14 08:53:03;;;;;;;1999.90;999.90;;;11.70;71.60;;;;;;4951188;29;20047;-87
2022/02/14 08:55:29;;;;;;;1999.90;999.90;;;11.50;72.50;;;;;;4939791;29;20032;-88
2022/02/14 08:57:55;;;;;;;1999.90;999.90;;;11.70;72.90;;;;;;4940348;29;20031;-88
2022/02/14 09:00:21;;;;;;;1999.90;999.90;;;12.00;72.20;;;;;;4954136;28;20035;-93
2022/02/14 09:02:47;;;;;;;1999.90;999.90;;;12.30;71.40;;;;;;4962211;29;20067;-91
2022/02/14 09:05:14;;;;;;;1999.90;999.90;;;12.70;70.60;;;;;;4964481;29;20394;-94
2022/02/14 09:07:41;;;;;;;1999.90;999.90;;;12.90;70.20;;;;;;4960376;28;20055;-91
2022/02/14 09:10:07;;;;;;;1999.90;999.90;;;12.60;70.30;;;;;;4952715;28;20058;-93
2022/02/14 09:12:33;;;;;;;1999.90;999.90;;;12.40;71.00;;;;;;4960093;28;20039;-91
2022/02/14 09:15:00;;;;;;;1999.90;999.90;;;12.30;71.50;;;;;;4948838;28;20035;-92
2022/02/14 09:17:26;;;;;;;1999.90;999.90;;;12.30;71.70;;;;;;4957415;28;20032;-93
2022/02/14 09:19:52;;;;;;;1999.90;999.90;;;12.30;72.00;;;;;;4960901;28;20038;-91
2022/02/14 09:22:19;;;;;;;1999.90;999.90;;;12.50;71.90;;;;;;4956809;28;20050;-86
2022/02/14 09:24:45;;;;;;;1999.90;999.90;;;12.50;71.60;;;;;;4944765;29;22751;-87
2022/02/14 09:27:11;;;;;;;1999.90;999.90;;;12.60;71.60;;;;;;4953732;29;20043;-86
2022/02/14 09:29:37;;;;;;;1999.90;999.90;;;12.50;71.60;;;;;;4950514;28;20039;-86
2022/02/14 09:32:05;;;;;;;1999.90;999.90;;;12.40;71.90;;;;;;4945077;28;20043;-86
2022/02/14 09:34:32;;;;;;;1999.90;999.90;;;12.30;72.30;;;;;;4948128;29;20502;-86
2022/02/14 09:36:58;;;;;;;1999.90;999.90;;;12.10;72.70;;;;;;4968874;28;20031;-86
2022/02/14 09:39:29;;;;;;;1999.90;999.90;;;11.90;73.00;;;;;;4956082;29;20031;-87
2022/02/14 09:42:03;;;;;;;1999.90;999.90;;;11.90;73.30;;;;;;4961330;28;20030;-87
2022/02/14 09:44:29;;;;;;;1999.90;999.90;;;11.70;73.60;;;;;;4954521;28;20035;-86
2022/02/14 09:46:55;;;;;;;1999.90;999.90;;;11.80;73.80;;;;;;4949304;28;20068;-84
2022/02/14 09:49:22;;;;;;;1999.90;999.90;;;11.80;73.60;;;;;;4948831;29;20084;-88
2022/02/14 09:51:53;;;;;;;1999.90;999.90;;;11.90;73.50;;;;;;4961973;28;20024;-85
2022/02/14 09:54:20;;;;;;;1999.90;999.90;;;12.00;73.40;;;;;;4955818;28;20477;-85
2022/02/14 09:56:47;;;;;;;1999.90;999.90;;;12.40;73.00;;;;;;4957200;29;20027;-84
2022/02/14 09:59:16;;;;;;;1999.90;999.90;;;12.60;72.30;;;;;;4946729;28;20036;-84
2022/02/14 10:01:43;;;;;;;1999.90;999.90;;;12.60;72.70;;;;;;4970393;28;20036;-92
2022/02/14 10:04:09;;;;;;;1999.90;999.90;;;12.70;72.00;;;;;;4964532;28;20023;-91
2022/02/14 10:06:40;;;;;;;1999.90;999.90;;;12.60;72.10;;;;;;4965643;29;20027;-94
2022/02/14 10:09:06;;;;;;;1999.90;999.90;;;12.60;72.20;;;;;;4951867;28;20046;-89
2022/02/14 10:11:34;;;;;;;1999.90;999.90;;;12.60;72.30;;;;;;4958563;28;20031;-89
2022/02/14 10:14:19;;;;;;;1999.90;999.90;;;12.60;72.60;;;;;;4949119;28;20079;-85
2022/02/14 10:17:10;;;;;;;1999.90;999.90;;;12.50;72.50;;;;;;4949092;28;20039;-86
2022/02/14 10:19:57;;;;;;;1999.90;999.90;;;12.50;72.70;;;;;;4956394;29;20038;-85
2022/02/14 10:22:23;;;;;;;1999.90;999.90;;;12.40;73.00;;;;;;4955194;29;20027;-85
2022/02/14 10:24:49;;;;;;;1999.90;999.90;;;12.40;72.90;;;;;;4945463;28;20026;-85
2022/02/14 10:27:16;;;;;;;1999.90;999.90;;;12.40;73.00;;;;;;4954997;29;20478;-87
2022/02/14 10:29:42;;;;;;;1999.90;999.90;;;12.40;73.00;;;;;;4943711;28;20039;-84
2022/02/14 10:32:15;;;;;;;1999.90;999.90;;;12.40;73.00;;;;;;4946354;28;20038;-93
2022/02/14 10:34:49;;;;;;;1999.90;999.90;;;12.40;73.00;;;;;;4947925;29;20050;-86
2022/02/14 10:37:17;;;;;;;1999.90;999.90;;;12.50;72.90;;;;;;4952679;28;20051;-88
2022/02/14 10:39:44;;;;;;;1999.90;999.90;;;12.60;72.90;;;;;;4948736;29;20386;-85
2022/02/14 10:42:11;;;;;;;1999.90;999.90;;;12.70;72.60;;;;;;4958607;28;20027;-93
2022/02/14 10:47:37;;;;;;;1999.90;999.90;;;12.90;72.20;;;;;;4957473;28;20044;-92
2022/02/14 10:50:25;;;;;;;1999.90;999.90;;;12.90;72.20;;;;;;4951963;28;20046;-91
2022/02/14 10:52:52;;;;;;;1999.90;999.90;;;12.80;72.30;;;;;;4959312;28;20058;-91
2022/02/14 10:55:33;;;;;;;1999.90;999.90;;;12.90;72.30;;;;;;4957417;28;20034;-92
2022/02/14 10:57:59;;;;;;;1999.90;999.90;;;12.90;72.20;;;;;;4961092;28;20043;-89
2022/02/14 11:00:32;;;;;;;1999.90;999.90;;;13.00;72.30;;;;;;4947374;28;20509;-90
2022/02/14 11:03:01;;;;;;;1999.90;999.90;;;13.00;72.20;;;;;;4941467;29;20035;-89
2022/02/14 11:05:28;;;;;;;1999.90;999.90;;;13.20;72.10;;;;;;4949346;29;20051;-89
2022/02/14 11:07:56;;;;;;;1999.90;999.90;;;13.20;71.90;;;;;;4952335;29;20057;-89
2022/02/14 11:10:22;;;;;;;1999.90;999.90;;;13.30;71.80;;;;;;4955997;29;20376;-90
2022/02/14 11:12:56;;;;;;;1999.90;999.90;;;13.40;71.70;;;;;;4954216;29;20046;-88
2022/02/14 11:15:28;;;;;;;1999.90;999.90;;;13.40;71.70;;;;;;4954607;28;20027;-89
2022/02/14 11:17:56;;;;;;;1999.90;999.90;;;13.70;72.30;;;;;;4953877;29;20390;-88
2022/02/14 11:20:22;;;;;;;1999.90;999.90;;;13.90;70.90;;;;;;4953695;29;20042;-88
2022/02/14 11:22:49;;;;;;;1999.90;999.90;;;14.00;70.60;;;;;;4954314;28;20039;-90
2022/02/14 11:25:34;;;;;;;1999.90;999.90;;;14.10;70.40;;;;;;4954859;29;20031;-88
2022/02/14 11:28:09;;;;;;;1999.90;999.90;;;14.10;70.30;;;;;;4951235;28;20040;-86
2022/02/14 11:30:36;;;;;;;1999.90;999.90;;;14.10;70.50;;;;;;4957072;28;20047;-86
2022/02/14 11:33:09;;;;;;;1999.90;999.90;;;14.00;70.60;;;;;;4953679;28;20450;-85
2022/02/14 11:35:37;;;;;;;1999.90;999.90;;;13.90;70.80;;;;;;4953480;28;20034;-86
2022/02/14 11:38:05;;;;;;;1999.90;999.90;;;13.90;71.00;;;;;;4952662;28;20430;-85
2022/02/14 11:40:32;;;;;;;1999.90;999.90;;;13.80;71.00;;;;;;4953790;28;20038;-86
2022/02/14 11:43:24;;;;;;;1999.90;999.90;;;13.90;71.10;;;;;;4952810;28;20035;-87
2022/02/14 11:46:08;;;;;;;1999.90;999.90;;;14.00;71.00;;;;;;4941962;28;20031;-84
2022/02/14 11:48:34;;;;;;;1999.90;999.90;;;14.30;70.60;;;;;;4953739;28;20058;-83
2022/02/14 11:51:10;;;;;;;1999.90;999.90;;;14.50;70.10;;;;;;4951874;28;20043;-84
2022/02/14 11:53:45;;;;;;;1999.90;999.90;;;14.50;69.90;;;;;;4948336;28;20047;-83
2022/02/14 11:56:23;;;;;;;1999.90;999.90;;;14.50;69.90;;;;;;4948063;28;20050;-83
2022/02/14 11:59:17;;;;;;;1999.90;999.90;;;14.50;69.90;;;;;;4945864;28;20039;-86
2022/02/14 12:01:49;;;;;;;1999.90;999.90;;;14.30;70.10;;;;;;4948104;28;20043;-85
2022/02/14 12:04:31;;;;;;;1999.90;999.90;;;14.10;70.30;;;;;;4948663;28;20032;-83
2022/02/14 12:07:19;;;;;;;1999.90;999.90;;;13.90;70.70;;;;;;4951823;28;20042;-84
2022/02/14 12:10:00;;;;;;;1999.90;999.90;;;13.70;71.10;;;;;;4943492;29;20051;-84
2022/02/14 12:12:39;;;;;;;1999.90;999.90;;;13.40;71.60;;;;;;4953840;29;20027;-86
2022/02/14 12:20:40;;;;;;;1999.90;999.90;;;13.10;72.70;;;;;;4950152;28;20035;-82
2022/02/14 12:23:06;;;;;;;1999.90;999.90;;;13.40;72.20;;;;;;4948339;29;20038;-84
2022/02/14 12:25:34;;;;;;;1999.90;999.90;;;13.70;71.60;;;;;;4952418;29;20027;-84
2022/02/14 12:28:08;;;;;;;1999.90;999.90;;;14.10;71.00;;;;;;4952414;29;20039;-83
2022/02/14 12:30:34;;;;;;;1999.90;999.90;;;14.40;70.30;;;;;;4953212;28;20530;-84